Newnan, GA

12:41 PM EDT on April 25, 2015 (GMT -0400)
RAWS | | Change Station
CLOSE
Current Station
Personal Weather Station
Location: Newnan, GA
Elevation: 873 ft
Nearby Weather Stations

Elev 873 ft 33.37 °N, 84.86 °W | Updated 39 minutes ago

Overcast
Overcast
72 °F
Feels Like 72 °F
N
3
Wind Variable Wind from SW
Gusts 6.0 mph

Today
High -- | Low -- °F
--% Chance of Precip.
Yesterday
High -- | Low -- °F
Precip. -- in
6:57 AM 8:17 PM
Waxing Crescent, 47% visible
Pressure 29.79 in
Visibility 10.0 miles
Clouds Mostly Cloudy 1500 ft
Heat Index 72 °F
Dew Point 66 °F
Humidity 82%
Rainfall in
Snow Depth Not available.
UV 6 out of 12
Pollen 9.60 out of 12
Air Quality Not available.
Flu Activity Sporadic
SPECI KFFC 251624Z AUTO VRB05KT 10SM BKN015 22/18 A2979 RMK AO2 T02220183

More Conditions Fewer Conditions

Pressure 29.79 in
Visibility 10.0 miles
Clouds Mostly Cloudy 1500 ft
Heat Index 72 °F
Dew Point 66 °F
Humidity 82%
Rainfall in
Snow Depth Not available.
UV 6 out of 12
Pollen 9.60 out of 12
Air Quality Not available.
Flu Activity Sporadic
SPECI KFFC 251624Z AUTO VRB05KT 10SM BKN015 22/18 A2979 RMK AO2 T02220183

More Conditions Fewer Conditions

10-Day Weather Forecast

Almanac

Astronomy

Apr. 25, 2015 Rise Set
Actual Time
Civil Twilight
Nautical Twilight
Astronomical Twilight
Moon
Length of Visible Light
Length of Day
Tomorrow will be .
, % of the Moon is Illuminated

Today's Extremes

State Highs State Lows

Community

WunderPhotos

Upload Photos

1,816,737 photos uploaded!

WunderBlogs® & News

Nearby

Air Quality

  Air Quality AQ Index Pollutant
Not available.

Snow Depth

Station Depth Elevation

Earthquake Activity

City Distance Mag. Time & Date
Minimum magnitude displayed is 2.5.

Coastal Water Temperatures

Place Temperature

Stations

Nearby Weather Stations

Station Location Temp. Windchill Dew Point Humidity Wind Precip. Elev Updated Type